Time;durP1;ratioP1;P1;durP2;ratioP2;P2;SDS_P1;SDS_P2;PMS_P1;PMS_P2;Temp;Humidity;BMP_temperature;BMP_pressure;BME280_temperature;BME280_humidity;BME280_pressure;Samples;Min_cycle;Max_cycle;Signal;HPM_P1;HPM_P2
2023/09/22 00:01:02;;;;;;;2.40;1.02;;;;;;;;;;5039935;28;20560;-71
2023/09/22 00:03:34;;;;;;;;;;;;;;;;;;5038211;28;20049;-69
2023/09/22 00:06:00;;;;;;;2.88;1.23;;;;;;;;;;5043525;28;19960;-69
2023/09/22 00:08:26;;;;;;;2.55;1.30;;;;;;;;;;5044108;28;20131;-69
2023/09/22 00:10:53;;;;;;;1.88;1.10;;;;;;;;;;5042285;28;20121;-69
2023/09/22 00:13:21;;;;;;;3.85;1.05;;;;;;;;;;5040598;28;20048;-69
2023/09/22 00:15:48;;;;;;;4.78;0.98;;;;;;;;;;5041967;28;20133;-68
2023/09/22 00:18:14;;;;;;;2.97;1.17;;;;;;;;;;5038891;28;20139;-68
2023/09/22 00:20:40;;;;;;;6.35;0.90;;;;;;;;;;5042432;28;20122;-69
2023/09/22 00:23:06;;;;;;;2.58;1.02;;;;;;;;;;5044042;28;20049;-70
2023/09/22 00:25:32;;;;;;;1.38;0.90;;;;;;;;;;5044837;28;20966;-68
2023/09/22 00:27:59;;;;;;;2.42;1.00;;;;;;;;;;5041760;28;20060;-68
2023/09/22 00:30:26;;;;;;;8.52;1.08;;;;;;;;;;5034810;28;20077;-68
2023/09/22 00:32:52;;;;;;;4.15;1.00;;;;;;;;;;5042114;28;20052;-67
2023/09/22 00:35:19;;;;;;;2.65;0.85;;;;;;;;;;5044836;28;20072;-68
2023/09/22 00:37:46;;;;;;;1.45;0.93;;;;;;;;;;5035765;28;20429;-69
2023/09/22 00:40:14;;;;;;;1.60;0.90;;;;;;;;;;5044709;28;20485;-71
2023/09/22 00:42:41;;;;;;;1.50;0.90;;;;;;;;;;5042774;28;20060;-69
2023/09/22 00:45:07;;;;;;;1.42;1.00;;;;;;;;;;5040072;28;20447;-69
2023/09/22 00:47:36;;;;;;;2.20;1.00;;;;;;;;;;5043135;28;20068;-69
2023/09/22 00:50:02;;;;;;;1.63;1.02;;;;;;;;;;5049267;28;20563;-68
2023/09/22 00:52:30;;;;;;;1.90;0.98;;;;;;;;;;5040331;28;20056;-70
2023/09/22 00:54:58;;;;;;;2.15;0.90;;;;;;;;;;5035207;28;20045;-69
2023/09/22 00:58:05;;;;;;;1.30;0.80;;;;;;;;;;5045106;28;20053;-68
2023/09/22 01:01:45;;;;;;;2.17;0.90;;;;;;;;;;5039626;28;20053;-68
2023/09/22 01:05:28;;;;;;;1.17;0.90;;;;;;;;;;5041021;28;20138;-67
2023/09/22 01:09:14;;;;;;;1.17;0.80;;;;;;;;;;5040834;28;20484;-68
2023/09/22 01:12:54;;;;;;;1.33;0.90;;;;;;;;;;5038558;28;20055;-69
2023/09/22 01:16:34;;;;;;;1.40;1.05;;;;;;;;;;5037423;28;20537;-68
2023/09/22 01:20:15;;;;;;;1.40;0.90;;;;;;;;;;5039298;28;20056;-70
2023/09/22 01:23:55;;;;;;;1.63;0.93;;;;;;;;;;5040100;28;20045;-69
2023/09/22 01:27:35;;;;;;;1.80;0.82;;;;;;;;;;5036375;28;20533;-69
2023/09/22 01:31:16;;;;;;;1.70;1.00;;;;;;;;;;5038885;28;20410;-68
2023/09/22 01:34:57;;;;;;;1.38;0.88;;;;;;;;;;5038156;28;20136;-70
2023/09/22 01:38:36;;;;;;;1.83;0.95;;;;;;;;;;5030709;28;20044;-69
2023/09/22 01:42:17;;;;;;;1.13;0.80;;;;;;;;;;5036395;28;20066;-68
2023/09/22 01:45:57;;;;;;;2.22;1.00;;;;;;;;;;5039890;28;20052;-69
2023/09/22 01:49:37;;;;;;;1.30;0.82;;;;;;;;;;5038299;28;20051;-69
2023/09/22 01:53:19;;;;;;;1.45;0.80;;;;;;;;;;5043610;28;20139;-68
2023/09/22 01:56:59;;;;;;;1.75;0.77;;;;;;;;;;5046983;28;20041;-68
2023/09/22 02:00:40;;;;;;;2.00;0.80;;;;;;;;;;5044410;28;20136;-70
2023/09/22 02:04:20;;;;;;;2.63;0.70;;;;;;;;;;5042574;28;20107;-68
2023/09/22 02:08:01;;;;;;;0.88;0.70;;;;;;;;;;5038980;28;20049;-67
2023/09/22 02:11:41;;;;;;;1.27;0.70;;;;;;;;;;5042475;28;20037;-69
2023/09/22 02:15:21;;;;;;;2.17;1.00;;;;;;;;;;5040895;28;20048;-68
2023/09/22 02:19:04;;;;;;;3.47;0.90;;;;;;;;;;5038995;28;20701;-69
2023/09/22 02:22:45;;;;;;;1.20;0.90;;;;;;;;;;5039415;28;20382;-68
2023/09/22 02:26:26;;;;;;;3.88;0.85;;;;;;;;;;5040887;28;20041;-68
2023/09/22 02:30:07;;;;;;;2.33;1.00;;;;;;;;;;5038135;28;20088;-68
2023/09/22 02:33:48;;;;;;;2.55;0.93;;;;;;;;;;5045467;28;20041;-70
2023/09/22 02:37:26;;;;;;;2.13;0.80;;;;;;;;;;5045203;28;20124;-70
2023/09/22 02:41:07;;;;;;;2.28;1.02;;;;;;;;;;5046916;28;20545;-70
2023/09/22 02:44:47;;;;;;;4.50;1.00;;;;;;;;;;5038785;28;20052;-68
2023/09/22 02:48:29;;;;;;;1.40;0.80;;;;;;;;;;5045748;28;20515;-69
2023/09/22 02:52:09;;;;;;;5.53;1.00;;;;;;;;;;5041279;28;20049;-68
2023/09/22 02:55:50;;;;;;;2.50;0.90;;;;;;;;;;5043856;28;20045;-68
2023/09/22 02:59:31;;;;;;;1.65;0.85;;;;;;;;;;5043032;28;20079;-69
2023/09/22 03:03:12;;;;;;;1.70;0.80;;;;;;;;;;5039662;28;20095;-70
2023/09/22 03:06:52;;;;;;;2.40;0.95;;;;;;;;;;5040006;28;20052;-71
2023/09/22 03:10:32;;;;;;;2.78;0.95;;;;;;;;;;5049025;28;20057;-69
2023/09/22 03:14:12;;;;;;;1.80;0.70;;;;;;;;;;5040557;28;20037;-69
2023/09/22 03:17:52;;;;;;;1.15;0.80;;;;;;;;;;5044043;28;20382;-68
2023/09/22 03:21:33;;;;;;;3.45;0.80;;;;;;;;;;5043289;28;20079;-69
2023/09/22 03:25:13;;;;;;;1.60;0.70;;;;;;;;;;5048843;28;20040;-70
2023/09/22 03:28:55;;;;;;;2.90;1.15;;;;;;;;;;5045824;28;20424;-68
2023/09/22 03:32:35;;;;;;;2.05;1.00;;;;;;;;;;5043217;28;20045;-68
2023/09/22 03:36:15;;;;;;;2.58;1.00;;;;;;;;;;5042264;28;20057;-69
2023/09/22 03:39:56;;;;;;;2.63;0.98;;;;;;;;;;5040912;28;20083;-69
2023/09/22 03:43:36;;;;;;;3.08;1.10;;;;;;;;;;5045866;28;20037;-68
2023/09/22 03:47:18;;;;;;;1.13;0.75;;;;;;;;;;5040088;28;20087;-68
2023/09/22 03:51:00;;;;;;;3.88;1.10;;;;;;;;;;5039545;28;20037;-68
2023/09/22 03:54:40;;;;;;;6.10;1.00;;;;;;;;;;5042597;28;20044;-69
2023/09/22 03:58:20;;;;;;;6.05;1.00;;;;;;;;;;5038238;28;20449;-69
2023/09/22 04:02:01;;;;;;;4.15;1.10;;;;;;;;;;5042783;28;20053;-67
2023/09/22 04:05:41;;;;;;;2.67;1.23;;;;;;;;;;5047023;28;20099;-69
2023/09/22 04:09:21;;;;;;;4.05;1.10;;;;;;;;;;5041694;28;20053;-68
2023/09/22 04:13:06;;;;;;;3.60;1.30;;;;;;;;;;5043302;28;20040;-69
2023/09/22 04:16:47;;;;;;;3.58;1.27;;;;;;;;;;5039149;28;20037;-69
2023/09/22 04:20:29;;;;;;;3.05;1.13;;;;;;;;;;5035621;28;20045;-69
2023/09/22 04:24:09;;;;;;;3.35;1.30;;;;;;;;;;5038092;28;20045;-70
2023/09/22 04:27:54;;;;;;;3.30;1.45;;;;;;;;;;5036990;28;20045;-68
2023/09/22 04:31:31;;;;;;;4.72;1.40;;;;;;;;;;5043066;28;20493;-68
2023/09/22 04:35:12;;;;;;;2.47;1.35;;;;;;;;;;5040895;28;20142;-69
2023/09/22 04:38:52;;;;;;;2.70;1.38;;;;;;;;;;5043810;28;20468;-68
2023/09/22 04:42:32;;;;;;;6.50;1.60;;;;;;;;;;5042208;28;20045;-68
2023/09/22 04:46:16;;;;;;;6.00;1.73;;;;;;;;;;5039910;28;20048;-69
2023/09/22 04:49:57;;;;;;;5.20;1.25;;;;;;;;;;5034957;28;20064;-69
2023/09/22 04:53:39;;;;;;;6.72;1.60;;;;;;;;;;5042649;28;20040;-68
2023/09/22 04:57:18;;;;;;;5.25;1.25;;;;;;;;;;5042284;28;20049;-69
2023/09/22 05:01:01;;;;;;;5.22;1.60;;;;;;;;;;5040184;28;20063;-69
2023/09/22 05:04:40;;;;;;;10.02;2.38;;;;;;;;;;5045883;28;20064;-70
2023/09/22 05:08:20;;;;;;;3.50;1.42;;;;;;;;;;5037893;28;20044;-71
2023/09/22 05:12:00;;;;;;;4.93;1.40;;;;;;;;;;5039394;28;20485;-69
2023/09/22 05:15:41;;;;;;;5.38;1.45;;;;;;;;;;5044193;28;20033;-69
2023/09/22 05:19:21;;;;;;;3.85;1.50;;;;;;;;;;5042164;28;20049;-69
2023/09/22 05:23:02;;;;;;;5.07;1.70;;;;;;;;;;5040716;28;20068;-70
2023/09/22 05:26:45;;;;;;;9.60;2.00;;;;;;;;;;5047234;28;20052;-70
2023/09/22 05:30:26;;;;;;;6.32;1.98;;;;;;;;;;5048522;28;20123;-69
2023/09/22 05:34:06;;;;;;;5.43;1.58;;;;;;;;;;5047052;28;20489;-70
2023/09/22 05:37:50;;;;;;;8.10;1.60;;;;;;;;;;5046659;28;20049;-71
2023/09/22 05:41:28;;;;;;;6.82;1.70;;;;;;;;;;5037385;28;20079;-70
2023/09/22 05:45:10;;;;;;;10.00;1.80;;;;;;;;;;5038966;28;20045;-71
2023/09/22 05:48:52;;;;;;;6.25;1.95;;;;;;;;;;5039980;28;20053;-71
2023/09/22 05:52:30;;;;;;;8.82;2.10;;;;;;;;;;5038854;28;20045;-70
2023/09/22 05:56:11;;;;;;;4.13;1.63;;;;;;;;;;5037483;28;20948;-70
2023/09/22 05:59:51;;;;;;;9.90;1.48;;;;;;;;;;5030737;28;20049;-70
2023/09/22 06:03:32;;;;;;;3.72;1.80;;;;;;;;;;5043223;28;20408;-69
2023/09/22 06:07:14;;;;;;;8.57;1.73;;;;;;;;;;5044474;28;20123;-69
2023/09/22 06:10:14;;;;;;;4.40;1.63;;;;;;;;;;5044825;28;20167;-72
2023/09/22 06:12:42;;;;;;;6.07;1.60;;;;;;;;;;5038555;28;20048;-70
2023/09/22 06:15:09;;;;;;;7.78;1.98;;;;;;;;;;5037585;28;20126;-70
2023/09/22 06:18:18;;;;;;;12.85;1.77;;;;;;;;;;5025871;28;20199;-71
2023/09/22 06:21:57;;;;;;;4.70;1.58;;;;;;;;;;5036982;28;20086;-71
2023/09/22 06:25:37;;;;;;;6.97;2.13;;;;;;;;;;5043612;28;20103;-72
2023/09/22 06:29:18;;;;;;;6.43;2.15;;;;;;;;;;5045805;28;20067;-69
2023/09/22 06:33:04;;;;;;;8.48;2.58;;;;;;;;;;5028763;28;20045;-70
2023/09/22 06:36:06;;;;;;;7.82;2.65;;;;;;;;;;5027539;28;20044;-69
2023/09/22 06:39:13;;;;;;;11.98;2.47;;;;;;;;;;5039066;28;20057;-70
2023/09/22 06:42:14;;;;;;;10.20;3.40;;;;;;;;;;5031351;28;20369;-71
2023/09/22 06:45:22;;;;;;;24.00;3.80;;;;;;;;;;5042266;28;20520;-69
2023/09/22 06:49:05;;;;;;;12.57;3.17;;;;;;;;;;5040106;28;20095;-72
2023/09/22 06:52:43;;;;;;;10.55;3.30;;;;;;;;;;5038494;28;20080;-71
2023/09/22 06:55:30;;;;;;;;;;;;;;;;;;5040810;28;20055;-72
2023/09/22 06:58:40;;;;;;;12.13;3.03;;;;;;;;;;5033349;28;20384;-71
2023/09/22 07:01:40;;;;;;;13.55;3.47;;;;;;;;;;5042042;28;20088;-71
2023/09/22 07:04:49;;;;;;;11.48;3.10;;;;;;;;;;5045441;28;20053;-74
2023/09/22 07:08:34;;;;;;;15.80;3.13;;;;;;;;;;5036882;28;20386;-74
2023/09/22 07:11:40;;;;;;;12.27;3.38;;;;;;;;;;5039189;28;20056;-72
2023/09/22 07:15:23;;;;;;;13.90;3.45;;;;;;;;;;5040833;28;20033;-72
2023/09/22 07:19:03;;;;;;;10.00;2.90;;;;;;;;;;5038363;28;20061;-71
2023/09/22 07:22:44;;;;;;;15.80;3.28;;;;;;;;;;5040381;28;20413;-72
2023/09/22 07:26:24;;;;;;;12.82;2.72;;;;;;;;;;5046741;28;20045;-72
2023/09/22 07:30:09;;;;;;;15.43;3.40;;;;;;;;;;5038837;28;20056;-73
2023/09/22 07:32:38;;;;;;;10.63;3.00;;;;;;;;;;5047236;28;20856;-72
2023/09/22 07:35:46;;;;;;;8.55;2.50;;;;;;;;;;5046759;28;20052;-72
2023/09/22 07:39:26;;;;;;;21.45;7.75;;;;;;;;;;5042196;28;20434;-73
2023/09/22 07:43:05;;;;;;;15.10;3.85;;;;;;;;;;5040472;28;20091;-74
2023/09/22 07:45:33;;;;;;;16.17;3.15;;;;;;;;;;5045024;28;20133;-75
2023/09/22 07:48:02;;;;;;;12.95;3.05;;;;;;;;;;5046278;28;20048;-74
2023/09/22 07:51:11;;;;;;;12.10;3.25;;;;;;;;;;5040204;28;20045;-73
2023/09/22 07:54:50;;;;;;;13.20;3.78;;;;;;;;;;5042562;28;20389;-75
2023/09/22 07:58:30;;;;;;;11.32;3.50;;;;;;;;;;5041745;28;20060;-76
2023/09/22 08:02:10;;;;;;;14.45;3.20;;;;;;;;;;5046584;28;20083;-71
2023/09/22 08:05:53;;;;;;;11.68;2.65;;;;;;;;;;5045622;28;20416;-75
2023/09/22 08:09:37;;;;;;;11.32;3.35;;;;;;;;;;5039425;28;20045;-73
2023/09/22 08:13:21;;;;;;;13.65;3.17;;;;;;;;;;5039499;28;20037;-72
2023/09/22 08:16:49;;;;;;;13.73;2.20;;;;;;;;;;5041766;28;20048;-71
2023/09/22 08:19:55;;;;;;;11.00;2.40;;;;;;;;;;5038120;28;20511;-73
2023/09/22 08:23:35;;;;;;;4.50;1.80;;;;;;;;;;5041571;28;20052;-74
2023/09/22 08:27:16;;;;;;;5.35;1.48;;;;;;;;;;5045108;28;20072;-73
2023/09/22 08:30:56;;;;;;;7.93;1.45;;;;;;;;;;5043035;28;20049;-73
2023/09/22 08:34:40;;;;;;;4.07;1.58;;;;;;;;;;5034785;28;20493;-74
2023/09/22 08:38:22;;;;;;;7.47;1.90;;;;;;;;;;5037608;28;20451;-72
2023/09/22 08:42:04;;;;;;;3.63;1.40;;;;;;;;;;5037373;28;20432;-72
2023/09/22 08:45:44;;;;;;;3.78;1.20;;;;;;;;;;5042758;28;20094;-75
2023/09/22 08:49:27;;;;;;;6.25;1.50;;;;;;;;;;5039675;28;20048;-74
2023/09/22 08:53:11;;;;;;;4.78;1.50;;;;;;;;;;5044433;28;20051;-74
2023/09/22 08:56:49;;;;;;;6.88;1.40;;;;;;;;;;5037467;28;20084;-71
2023/09/22 09:00:18;;;;;;;4.90;1.60;;;;;;;;;;5036932;28;20056;-72
2023/09/22 09:03:54;;;;;;;8.60;1.55;;;;;;;;;;5047153;28;20208;-71
2023/09/22 09:07:37;;;;;;;2.78;1.30;;;;;;;;;;5042724;28;20060;-71
2023/09/22 09:11:18;;;;;;;2.88;1.40;;;;;;;;;;5041908;28;20063;-72
2023/09/22 09:15:02;;;;;;;3.90;1.40;;;;;;;;;;5034964;28;20313;-72
2023/09/22 09:18:42;;;;;;;2.70;1.17;;;;;;;;;;5047993;28;20114;-73
2023/09/22 09:22:25;;;;;;;4.60;1.20;;;;;;;;;;5039567;28;20060;-73
2023/09/22 09:26:09;;;;;;;5.45;1.85;;;;;;;;;;5040626;28;20124;-72
2023/09/22 09:29:53;;;;;;;6.10;1.85;;;;;;;;;;5039396;28;20061;-71
2023/09/22 09:33:34;;;;;;;6.32;1.48;;;;;;;;;;5035152;28;20079;-74
2023/09/22 09:37:30;;;;;;;3.92;1.33;;;;;;;;;;5040434;28;20462;-72
2023/09/22 09:41:10;;;;;;;1.85;1.02;;;;;;;;;;5040845;28;20416;-72
2023/09/22 09:44:50;;;;;;;4.95;1.52;;;;;;;;;;5033915;28;20471;-75
2023/09/22 09:48:31;;;;;;;4.63;1.52;;;;;;;;;;5039237;28;20037;-76
2023/09/22 09:52:15;;;;;;;6.65;2.00;;;;;;;;;;5040448;28;20045;-75
2023/09/22 09:56:05;;;;;;;5.78;1.50;;;;;;;;;;5050864;28;20041;-75
2023/09/22 09:59:35;;;;;;;3.70;1.20;;;;;;;;;;5052469;28;20127;-76
2023/09/22 10:03:17;;;;;;;5.53;1.50;;;;;;;;;;5045054;28;20470;-75
2023/09/22 10:06:56;;;;;;;4.45;2.13;;;;;;;;;;5047185;28;20069;-76
2023/09/22 10:10:38;;;;;;;3.90;1.40;;;;;;;;;;5044364;28;20045;-80
2023/09/22 10:14:16;;;;;;;5.00;1.20;;;;;;;;;;5038384;28;20045;-76
2023/09/22 10:18:00;;;;;;;4.68;1.27;;;;;;;;;;5040796;28;20049;-78
2023/09/22 10:21:29;;;;;;;5.45;1.60;;;;;;;;;;5048186;28;20052;-78
2023/09/22 10:25:08;;;;;;;2.58;1.20;;;;;;;;;;5051798;28;20044;-77
2023/09/22 10:28:50;;;;;;;5.70;2.22;;;;;;;;;;5034626;28;20073;-75
2023/09/22 10:32:25;;;;;;;5.95;1.20;;;;;;;;;;5037364;28;20047;-76
2023/09/22 10:36:18;;;;;;;2.83;1.30;;;;;;;;;;5035293;28;20385;-77
2023/09/22 10:40:19;;;;;;;4.45;1.55;;;;;;;;;;5041337;28;20060;-77
2023/09/22 10:43:57;;;;;;;2.72;1.17;;;;;;;;;;5047801;28;20041;-75
2023/09/22 10:47:39;;;;;;;3.58;1.10;;;;;;;;;;5038809;28;20053;-77
2023/09/22 10:51:22;;;;;;;9.55;1.30;;;;;;;;;;5035366;28;20071;-74
2023/09/22 10:55:02;;;;;;;2.35;1.45;;;;;;;;;;5040460;28;20131;-74
2023/09/22 10:58:46;;;;;;;5.45;1.40;;;;;;;;;;5042835;28;20101;-75
2023/09/22 11:02:27;;;;;;;3.83;1.52;;;;;;;;;;5043681;28;20053;-71
2023/09/22 11:06:07;;;;;;;4.95;1.30;;;;;;;;;;5035731;28;20050;-72
2023/09/22 11:09:53;;;;;;;4.82;1.38;;;;;;;;;;5039660;28;20481;-71
2023/09/22 11:13:36;;;;;;;4.05;1.30;;;;;;;;;;5043380;28;20048;-72
2023/09/22 11:17:16;;;;;;;2.83;1.23;;;;;;;;;;5036153;28;20049;-71
2023/09/22 11:21:00;;;;;;;4.55;1.20;;;;;;;;;;5037496;28;20053;-73
2023/09/22 11:24:41;;;;;;;4.28;1.50;;;;;;;;;;5042383;28;20120;-75
2023/09/22 11:27:48;;;;;;;3.25;1.38;;;;;;;;;;5041848;28;20037;-73
2023/09/22 11:31:28;;;;;;;3.95;1.27;;;;;;;;;;5035376;28;20180;-75
2023/09/22 11:35:09;;;;;;;2.25;1.30;;;;;;;;;;5040126;28;20465;-72
2023/09/22 11:38:23;;;;;;;2.88;1.50;;;;;;;;;;5038449;28;20144;-78
2023/09/22 11:42:04;;;;;;;3.83;1.30;;;;;;;;;;5045445;28;20045;-80
2023/09/22 11:45:43;;;;;;;2.83;1.38;;;;;;;;;;5047563;28;20051;-77
2023/09/22 11:49:20;;;;;;;3.13;1.52;;;;;;;;;;5047884;28;20045;-77
2023/09/22 11:53:10;;;;;;;5.30;1.25;;;;;;;;;;5049727;28;20060;-74
2023/09/22 11:56:51;;;;;;;4.00;1.40;;;;;;;;;;5050415;28;20075;-78
2023/09/22 12:00:31;;;;;;;4.18;1.50;;;;;;;;;;5052890;28;20113;-78
2023/09/22 12:04:12;;;;;;;5.40;1.38;;;;;;;;;;5053069;28;20053;-77
2023/09/22 12:07:52;;;;;;;3.40;1.40;;;;;;;;;;5046863;28;20049;-73
2023/09/22 12:11:33;;;;;;;2.88;1.27;;;;;;;;;;5040011;28;20045;-76
2023/09/22 12:15:13;;;;;;;2.03;1.33;;;;;;;;;;5047872;28;20044;-74
2023/09/22 12:18:53;;;;;;;3.83;1.30;;;;;;;;;;5050624;28;20151;-74
2023/09/22 12:22:34;;;;;;;3.22;1.30;;;;;;;;;;5044314;28;20045;-76
2023/09/22 12:25:36;;;;;;;4.18;1.50;;;;;;;;;;5046870;28;20045;-78
2023/09/22 12:28:02;;;;;;;3.50;1.40;;;;;;;;;;5050079;28;20588;-77
2023/09/22 12:30:29;;;;;;;2.78;1.13;;;;;;;;;;5047898;28;20063;-78
2023/09/22 12:32:56;;;;;;;2.22;1.30;;;;;;;;;;5061628;28;20428;-76
2023/09/22 12:35:23;;;;;;;2.35;1.55;;;;;;;;;;5060652;28;20063;-79
2023/09/22 12:37:52;;;;;;;2.60;1.30;;;;;;;;;;5065126;28;20053;-78
2023/09/22 12:40:18;;;;;;;2.75;1.40;;;;;;;;;;5055676;28;20197;-78
2023/09/22 12:42:46;;;;;;;2.63;1.30;;;;;;;;;;5053629;28;20044;-76
2023/09/22 12:45:12;;;;;;;3.03;1.42;;;;;;;;;;5054469;28;20386;-77
2023/09/22 12:47:38;;;;;;;3.63;1.58;;;;;;;;;;5064196;28;20055;-75
2023/09/22 12:50:08;;;;;;;2.58;1.10;;;;;;;;;;5051664;28;20140;-78
2023/09/22 12:52:34;;;;;;;2.78;1.40;;;;;;;;;;5054736;28;20325;-79
2023/09/22 12:55:01;;;;;;;3.25;1.35;;;;;;;;;;5057767;28;20682;-76
2023/09/22 12:57:28;;;;;;;2.38;1.17;;;;;;;;;;5052140;28;20053;-78
2023/09/22 12:59:57;;;;;;;2.25;1.23;;;;;;;;;;5045262;28;20445;-73
2023/09/22 13:02:23;;;;;;;2.67;1.33;;;;;;;;;;5046319;28;20084;-77
2023/09/22 13:04:49;;;;;;;4.20;1.02;;;;;;;;;;5040300;28;20087;-76
2023/09/22 13:07:18;;;;;;;4.32;1.42;;;;;;;;;;5040551;28;20071;-77
2023/09/22 13:09:44;;;;;;;4.28;1.50;;;;;;;;;;5044688;28;20160;-75
2023/09/22 13:12:11;;;;;;;2.30;1.40;;;;;;;;;;5034849;28;20057;-77
2023/09/22 13:14:36;;;;;;;2.60;1.40;;;;;;;;;;5035932;28;20057;-78
2023/09/22 13:17:04;;;;;;;2.58;1.40;;;;;;;;;;5046333;28;20126;-79
2023/09/22 13:19:33;;;;;;;6.68;1.55;;;;;;;;;;5046797;28;20441;-79
2023/09/22 13:22:00;;;;;;;4.18;1.35;;;;;;;;;;5047765;28;20045;-77
2023/09/22 13:24:26;;;;;;;2.90;1.38;;;;;;;;;;5040708;28;20096;-77
2023/09/22 13:26:54;;;;;;;4.55;1.60;;;;;;;;;;5049991;28;20507;-78
2023/09/22 13:29:20;;;;;;;2.00;1.00;;;;;;;;;;5050039;28;20053;-78
2023/09/22 13:31:48;;;;;;;2.00;1.13;;;;;;;;;;5041929;28;20861;-78
2023/09/22 13:34:14;;;;;;;3.92;1.17;;;;;;;;;;5050615;28;20064;-78
2023/09/22 13:36:42;;;;;;;3.45;1.33;;;;;;;;;;5049725;28;20049;-80
2023/09/22 13:39:08;;;;;;;3.65;1.30;;;;;;;;;;5047263;28;20049;-79
2023/09/22 13:41:35;;;;;;;2.75;1.58;;;;;;;;;;5044154;28;20148;-75
2023/09/22 13:44:01;;;;;;;4.95;1.40;;;;;;;;;;5047021;28;20068;-77
2023/09/22 13:46:30;;;;;;;2.03;1.17;;;;;;;;;;5046931;28;20044;-78
2023/09/22 13:48:55;;;;;;;1.65;1.10;;;;;;;;;;5032543;28;20057;-73
2023/09/22 13:51:23;;;;;;;3.22;1.20;;;;;;;;;;5035156;28;20060;-75
2023/09/22 13:53:50;;;;;;;3.13;1.50;;;;;;;;;;5038027;28;20045;-77
2023/09/22 13:56:17;;;;;;;4.00;1.40;;;;;;;;;;5039028;28;20053;-76
2023/09/22 13:58:48;;;;;;;3.53;1.80;;;;;;;;;;5045506;28;20381;-76
2023/09/22 14:01:15;;;;;;;2.67;1.50;;;;;;;;;;5045467;28;20056;-75
2023/09/22 14:03:41;;;;;;;2.10;1.17;;;;;;;;;;5028801;28;20114;-76
2023/09/22 14:06:14;;;;;;;2.80;1.50;;;;;;;;;;5032993;28;20082;-78
2023/09/22 14:08:41;;;;;;;3.27;1.30;;;;;;;;;;5046634;28;20132;-74
2023/09/22 14:11:12;;;;;;;3.17;1.48;;;;;;;;;;5040228;28;20380;-77
2023/09/22 14:13:38;;;;;;;3.55;1.63;;;;;;;;;;5040450;28;20045;-72
2023/09/22 14:16:05;;;;;;;3.00;1.38;;;;;;;;;;5036044;28;20080;-75
2023/09/22 14:18:34;;;;;;;2.40;1.10;;;;;;;;;;5032508;28;20130;-75
2023/09/22 14:21:01;;;;;;;6.05;1.40;;;;;;;;;;5033649;28;20041;-76
2023/09/22 14:23:29;;;;;;;5.10;1.40;;;;;;;;;;5039261;28;20501;-77
2023/09/22 14:25:58;;;;;;;3.22;1.30;;;;;;;;;;5035401;28;20041;-75
2023/09/22 14:28:25;;;;;;;1.98;1.27;;;;;;;;;;5034864;28;20063;-75
2023/09/22 14:30:53;;;;;;;3.22;1.58;;;;;;;;;;5042543;28;20114;-77
2023/09/22 14:33:19;;;;;;;3.08;1.42;;;;;;;;;;5036996;28;20049;-75
2023/09/22 14:35:46;;;;;;;3.05;1.40;;;;;;;;;;5039507;28;20485;-72
2023/09/22 14:38:14;;;;;;;2.63;1.05;;;;;;;;;;5043065;28;20356;-73
2023/09/22 14:40:43;;;;;;;1.75;1.00;;;;;;;;;;5040404;28;20436;-75
2023/09/22 14:43:08;;;;;;;3.90;1.20;;;;;;;;;;5036818;28;20473;-72
2023/09/22 14:45:36;;;;;;;4.28;1.60;;;;;;;;;;5047464;28;20053;-72
2023/09/22 14:48:04;;;;;;;3.22;1.40;;;;;;;;;;5038834;28;20052;-72
2023/09/22 14:50:32;;;;;;;4.75;1.40;;;;;;;;;;5046084;28;20053;-73
2023/09/22 14:53:04;;;;;;;5.10;1.48;;;;;;;;;;5044453;28;20064;-72
2023/09/22 14:55:31;;;;;;;5.53;1.30;;;;;;;;;;5049182;28;20045;-73
2023/09/22 14:57:56;;;;;;;7.05;1.65;;;;;;;;;;5036921;28;20052;-70
2023/09/22 15:00:26;;;;;;;2.38;1.35;;;;;;;;;;5044972;28;20064;-72
2023/09/22 15:02:54;;;;;;;3.60;1.38;;;;;;;;;;5041965;28;20461;-71
2023/09/22 15:05:21;;;;;;;4.30;1.55;;;;;;;;;;5041445;28;20559;-74
2023/09/22 15:07:48;;;;;;;4.13;1.30;;;;;;;;;;5041732;28;20099;-74
2023/09/22 15:10:14;;;;;;;4.55;1.40;;;;;;;;;;5044319;28;20052;-76
2023/09/22 15:12:40;;;;;;;2.75;1.30;;;;;;;;;;5045626;28;20037;-75
2023/09/22 15:15:07;;;;;;;3.33;1.63;;;;;;;;;;5041480;28;20618;-74
2023/09/22 15:17:33;;;;;;;2.17;1.13;;;;;;;;;;5043508;28;20108;-74
2023/09/22 15:20:00;;;;;;;7.32;1.80;;;;;;;;;;5038780;28;20071;-73
2023/09/22 15:22:28;;;;;;;4.57;1.80;;;;;;;;;;5039903;28;20170;-73
2023/09/22 15:24:55;;;;;;;3.95;1.50;;;;;;;;;;5039933;28;20052;-75
2023/09/22 15:27:21;;;;;;;3.78;1.50;;;;;;;;;;5049012;28;20140;-75
2023/09/22 15:29:47;;;;;;;3.47;1.33;;;;;;;;;;5047696;28;20053;-73
2023/09/22 15:32:14;;;;;;;8.82;1.60;;;;;;;;;;5046966;28;20055;-74
2023/09/22 15:34:42;;;;;;;7.78;1.85;;;;;;;;;;5047153;28;20155;-74
2023/09/22 15:37:09;;;;;;;5.65;1.95;;;;;;;;;;5047601;28;20052;-73
2023/09/22 15:39:36;;;;;;;4.45;1.30;;;;;;;;;;5041676;28;20066;-73
2023/09/22 15:42:06;;;;;;;6.07;1.70;;;;;;;;;;5041044;28;20556;-73
2023/09/22 15:44:34;;;;;;;4.13;1.80;;;;;;;;;;5043099;28;20114;-74
2023/09/22 15:47:00;;;;;;;4.13;1.30;;;;;;;;;;5042858;28;20135;-72
2023/09/22 15:49:31;;;;;;;2.67;1.42;;;;;;;;;;5021502;28;20053;-75
2023/09/22 15:51:57;;;;;;;3.47;1.40;;;;;;;;;;5046603;28;20048;-74
2023/09/22 15:54:23;;;;;;;4.28;1.35;;;;;;;;;;5046681;28;20049;-73
2023/09/22 15:56:49;;;;;;;7.13;1.70;;;;;;;;;;5052199;28;20083;-75
2023/09/22 15:59:15;;;;;;;5.72;1.60;;;;;;;;;;5048650;28;20056;-71
2023/09/22 16:01:44;;;;;;;3.10;1.40;;;;;;;;;;5044615;28;20109;-80
2023/09/22 16:04:10;;;;;;;8.43;1.40;;;;;;;;;;5043183;28;20076;-75
2023/09/22 16:06:36;;;;;;;3.45;1.35;;;;;;;;;;5037972;28;20435;-77
2023/09/22 16:09:03;;;;;;;3.60;1.10;;;;;;;;;;5037763;28;20087;-79
2023/09/22 16:11:28;;;;;;;4.85;1.65;;;;;;;;;;5055353;28;20076;-78
2023/09/22 16:13:55;;;;;;;3.33;1.38;;;;;;;;;;5042495;28;20121;-80
2023/09/22 16:16:21;;;;;;;6.55;1.60;;;;;;;;;;5051865;28;20048;-82
2023/09/22 16:18:48;;;;;;;5.68;1.40;;;;;;;;;;5050790;28;20049;-81
2023/09/22 16:21:16;;;;;;;7.03;1.55;;;;;;;;;;5043601;28;20500;-74
2023/09/22 16:23:42;;;;;;;5.22;1.90;;;;;;;;;;5035605;28;20891;-74
2023/09/22 16:26:09;;;;;;;7.25;4.25;;;;;;;;;;5037451;28;20041;-82
2023/09/22 16:28:37;;;;;;;5.78;1.90;;;;;;;;;;5048238;28;20053;-80
2023/09/22 16:31:05;;;;;;;3.67;1.38;;;;;;;;;;5048768;28;20106;-80
2023/09/22 16:33:36;;;;;;;2.75;1.30;;;;;;;;;;5057073;28;20079;-79
2023/09/22 16:36:03;;;;;;;6.72;1.50;;;;;;;;;;5050089;28;20063;-77
2023/09/22 16:38:34;;;;;;;3.75;1.30;;;;;;;;;;5035424;28;20044;-76
2023/09/22 16:41:02;;;;;;;3.00;1.30;;;;;;;;;;5047702;28;20057;-80
2023/09/22 16:43:29;;;;;;;3.55;1.30;;;;;;;;;;5057586;28;20048;-80
2023/09/22 16:45:58;;;;;;;2.97;1.50;;;;;;;;;;5059331;28;20044;-81
2023/09/22 16:48:25;;;;;;;5.90;1.52;;;;;;;;;;5054773;28;20037;-78
2023/09/22 16:50:51;;;;;;;5.15;1.75;;;;;;;;;;5047374;28;20120;-80
2023/09/22 16:53:18;;;;;;;7.15;1.60;;;;;;;;;;5045259;28;20041;-78
2023/09/22 16:55:46;;;;;;;5.50;1.48;;;;;;;;;;5041900;28;20098;-76
2023/09/22 16:58:13;;;;;;;3.20;1.40;;;;;;;;;;5056667;28;20041;-80
2023/09/22 17:00:40;;;;;;;2.42;1.40;;;;;;;;;;5052069;28;20057;-82
2023/09/22 17:03:06;;;;;;;3.53;1.40;;;;;;;;;;5045616;28;20064;-78
2023/09/22 17:05:33;;;;;;;3.97;1.45;;;;;;;;;;5045866;28;20049;-80
2023/09/22 17:08:00;;;;;;;7.93;1.52;;;;;;;;;;5037706;28;20061;-79
2023/09/22 17:10:26;;;;;;;3.63;1.50;;;;;;;;;;5037153;28;20080;-72
2023/09/22 17:12:54;;;;;;;2.80;1.48;;;;;;;;;;5033386;28;20105;-74
2023/09/22 17:15:23;;;;;;;3.95;1.63;;;;;;;;;;5035484;28;20595;-79
2023/09/22 17:17:51;;;;;;;4.45;1.60;;;;;;;;;;5034073;28;20056;-74
2023/09/22 17:20:18;;;;;;;5.72;1.60;;;;;;;;;;5033432;28;20490;-72
2023/09/22 17:22:45;;;;;;;5.03;1.73;;;;;;;;;;5037986;28;20091;-75
2023/09/22 17:25:13;;;;;;;2.70;1.45;;;;;;;;;;5033830;28;20466;-78
2023/09/22 17:27:40;;;;;;;4.13;1.63;;;;;;;;;;5033961;28;20098;-74
2023/09/22 17:30:09;;;;;;;3.03;1.38;;;;;;;;;;5027086;28;20057;-74
2023/09/22 17:33:16;;;;;;;4.70;1.48;;;;;;;;;;5038511;28;20048;-69
2023/09/22 17:36:56;;;;;;;5.93;1.40;;;;;;;;;;5031764;28;20056;-70
2023/09/22 17:40:37;;;;;;;6.55;1.40;;;;;;;;;;5031298;28;20041;-67
2023/09/22 17:44:20;;;;;;;5.07;1.50;;;;;;;;;;5040986;28;20071;-68
2023/09/22 17:47:57;;;;;;;2.58;1.45;;;;;;;;;;5033969;28;20512;-71
2023/09/22 17:51:44;;;;;;;6.30;2.00;;;;;;;;;;5034672;28;20183;-70
2023/09/22 17:55:24;;;;;;;4.40;1.67;;;;;;;;;;5036874;28;20091;-67
2023/09/22 17:59:09;;;;;;;5.72;2.10;;;;;;;;;;5037354;28;20055;-68
2023/09/22 18:02:48;;;;;;;3.22;1.33;;;;;;;;;;5031913;28;20485;-69
2023/09/22 18:06:29;;;;;;;3.58;1.67;;;;;;;;;;5031654;28;20520;-69
2023/09/22 18:10:12;;;;;;;5.55;1.77;;;;;;;;;;5031944;28;20059;-69
2023/09/22 18:13:54;;;;;;;4.22;1.88;;;;;;;;;;5030717;28;20054;-70
2023/09/22 18:17:56;;;;;;;4.78;1.77;;;;;;;;;;5030709;28;20065;-70
2023/09/22 18:21:31;;;;;;;9.05;1.95;;;;;;;;;;5030800;28;20049;-68
2023/09/22 18:25:10;;;;;;;5.50;1.48;;;;;;;;;;5027309;28;20598;-68
2023/09/22 18:28:54;;;;;;;3.70;1.70;;;;;;;;;;5025167;28;20042;-71
2023/09/22 18:32:35;;;;;;;8.73;2.10;;;;;;;;;;5034930;28;20153;-69
2023/09/22 18:36:17;;;;;;;4.30;1.67;;;;;;;;;;5027777;28;20210;-70
2023/09/22 18:39:58;;;;;;;6.63;2.10;;;;;;;;;;5030494;28;20134;-69
2023/09/22 18:43:41;;;;;;;4.07;1.90;;;;;;;;;;5033161;28;20041;-68
2023/09/22 18:47:21;;;;;;;6.80;2.20;;;;;;;;;;5027842;28;20044;-69